Enrique Olaya Herrera Airport


Codes: SKMD/EOH
Name: Enrique Olaya Herrera Airport
City: Medellin
Country: Colombia
Elevation: 4949 ft.
Wikipedia:

Photos at Enrique Olaya Herrera Airport


   Photos courtesy of SpottingLog. You can add your own sightings and photos by signing up for a free trial today.



No photos found.

Weather at Enrique Olaya Herrera Airport


Time (UTC)DescriptionTempratureWindCloud coverageVisibilityPressureHumidity
18-Apr-2024 00:00Moderate Rain23°C2 mph, N100%10000m1015hPa80%
18-Apr-2024 03:00Moderate Rain20°C0 mph, NE100%8801m1016hPa89%
18-Apr-2024 06:00Moderate Rain17°C2 mph, NE100%3069m1014hPa99%
18-Apr-2024 09:00Moderate Rain17°C2 mph, E100%10000m1013hPa98%
18-Apr-2024 12:00Light Rain18°C0 mph, NE100%10000m1015hPa96%
18-Apr-2024 15:00Light Rain22°C0 mph, SW99%10000m1015hPa83%
18-Apr-2024 18:00Moderate Rain21°C2 mph, S99%6500m1013hPa88%
18-Apr-2024 21:00Moderate Rain19°C2 mph, S100%9832m1012hPa96%
19-Apr-2024 00:00Light Rain18°C0 mph, W100%10000m1015hPa98%
19-Apr-2024 03:00Light Rain17°C2 mph, NW100%7386m1017hPa99%
19-Apr-2024 06:00Light Rain17°C2 mph, N100%0m1015hPa100%
19-Apr-2024 09:00Moderate Rain17°C0 mph, NW100%3073m1015hPa99%
19-Apr-2024 12:00Light Rain17°C0 mph, NE100%10000m1016hPa98%
19-Apr-2024 15:00Light Rain19°C2 mph, N100%10000m1017hPa90%
19-Apr-2024 18:00Overcast Clouds21°C2 mph, N100%10000m1014hPa76%
19-Apr-2024 21:00Light Rain23°C0 mph, NW96%10000m1011hPa70%
20-Apr-2024 00:00Light Rain18°C2 mph, NE98%10000m1014hPa93%
20-Apr-2024 03:00Moderate Rain17°C2 mph, NE100%10000m1017hPa97%
20-Apr-2024 06:00Light Rain17°C2 mph, SE100%10000m1016hPa98%
20-Apr-2024 09:00Light Rain16°C2 mph, SW100%4241m1016hPa99%
20-Apr-2024 12:00Light Rain17°C2 mph, SW100%5908m1018hPa98%
20-Apr-2024 15:00Light Rain21°C2 mph, SW100%10000m1017hPa79%
20-Apr-2024 18:00Light Rain25°C2 mph, N97%10000m1013hPa64%
20-Apr-2024 21:00Light Rain23°C2 mph, NE100%10000m1011hPa74%
21-Apr-2024 00:00Light Rain18°C2 mph, NE100%9819m1015hPa95%
21-Apr-2024 03:00Light Rain18°C2 mph, SE100%10000m1017hPa97%
21-Apr-2024 06:00Light Rain17°C0 mph, SE100%8771m1015hPa99%
21-Apr-2024 09:00Light Rain17°C0 mph, SE99%10000m1014hPa99%
21-Apr-2024 12:00Light Rain17°C0 mph, SE98%10000m1016hPa98%
21-Apr-2024 15:00Light Rain19°C2 mph, W100%10000m1016hPa91%
21-Apr-2024 18:00Light Rain23°C2 mph, S96%10000m1013hPa76%
21-Apr-2024 21:00Moderate Rain22°C0 mph, N92%7998m1010hPa85%
22-Apr-2024 00:00Moderate Rain17°C2 mph, NW96%3095m1014hPa99%
22-Apr-2024 03:00Moderate Rain17°C2 mph, SW100%2672m1016hPa99%
22-Apr-2024 06:00Light Rain16°C0 mph, S100%6280m1015hPa99%
22-Apr-2024 09:00Light Rain16°C0 mph, SW100%6714m1015hPa99%
22-Apr-2024 12:00Overcast Clouds17°C0 mph, SW100%10000m1016hPa97%
22-Apr-2024 15:00Light Rain21°C0 mph, NW96%10000m1016hPa82%
22-Apr-2024 18:00Light Rain20°C2 mph, NW98%10000m1013hPa84%
22-Apr-2024 21:00Light Rain22°C2 mph, NW93%10000m1010hPa77%